Aviation Digital Data Service (ADDS)

Output produced by TAFs form (1119 UTC 17 July 2018)
found at http://www.aviationweather.gov/adds/tafs/
 
KVLD 171053Z 19005KT 9SM CLR 23/23 A3004 RMK AO2 SLP178 T02330233
KVLD 170520Z 1706/1806 00000KT P6SM BKN050 
     TEMPO 1709/1712 4SM BR SCT004 
     FM171200 22005KT P6SM BKN030 
     FM172000 23006KT 6SM -TSRA BKN040CB 
     FM180200 VRB03KT P6SM SCT030